68MO weather

Southeast Health Center of Stoddard County Heliport
Dexter, Missouri, United States

Public forecast

Using degrees Fahrenheit for public forecast. Weather courtesy of forecast.io.

METAR (pilot weather report)

Closest report is Poplar Bluff Municipal Airport, 17.3 nm (32.1 km) W. Retrieved 2019/09/17 23:53 UTC (14 minutes ago):

KPOF 172353Z AUTO 00000KT 10SM CLR 29/23 A2996 RMK AO2 SLP141 T02890228 10356 20289 56006

TAF (pilot weather forecast)

Forecast is more than 12 hours old.

Closest forecast is Cape Girardeau Regional Airport, 31.5 nm (58.3 km) NE. Retrieved 2019/09/17 00:42 UTC (23 hours ago):

TAF KCGI 172339Z 1800/1824 VRB04KT P6SM SCT180 FM181100 00000KT 2SM BR MIFG FEW026 FM181400 04006KT P6SM FEW200